createdAt,value
2022-08-24T00:01:33.496Z,16.40
2022-08-24T00:04:02.638Z,16.41
2022-08-24T00:06:32.149Z,16.42
2022-08-24T00:09:00.373Z,16.43
2022-08-24T00:11:28.620Z,16.41
2022-08-24T00:13:57.149Z,16.46
2022-08-24T00:16:26.159Z,16.60
2022-08-24T00:18:56.077Z,16.50
2022-08-24T00:21:24.072Z,16.38
2022-08-24T00:23:52.102Z,16.33
2022-08-24T00:26:28.622Z,16.33
2022-08-24T00:28:57.737Z,16.28
2022-08-24T00:31:25.830Z,16.24
2022-08-24T00:33:56.354Z,16.19
2022-08-24T00:36:24.816Z,16.20
2022-08-24T00:38:54.125Z,16.16
2022-08-24T00:41:22.512Z,16.10
2022-08-24T00:43:55.586Z,16.09
2022-08-24T00:46:28.977Z,16.08
2022-08-24T00:49:02.313Z,16.03
2022-08-24T00:51:35.178Z,16.01
2022-08-24T00:54:10.000Z,16.04
2022-08-24T00:56:41.799Z,16.00
2022-08-24T00:59:12.540Z,16.01
2022-08-24T01:01:41.453Z,16.00
2022-08-24T01:04:14.247Z,15.98
2022-08-24T01:06:42.571Z,15.95
2022-08-24T01:09:10.504Z,15.93
2022-08-24T01:11:39.438Z,15.94
2022-08-24T01:18:52.110Z,15.92
2022-08-24T01:21:24.929Z,15.92
2022-08-24T01:23:57.318Z,15.95
2022-08-24T01:26:28.435Z,15.99
2022-08-24T01:28:58.676Z,15.95
2022-08-24T01:31:27.463Z,15.89
2022-08-24T01:33:56.055Z,15.87
2022-08-24T01:36:32.722Z,15.83
2022-08-24T01:39:05.641Z,15.76
2022-08-24T01:41:33.424Z,15.77
2022-08-24T01:44:01.548Z,15.75
2022-08-24T01:46:30.244Z,15.77
2022-08-24T01:48:59.055Z,15.77
2022-08-24T01:51:27.131Z,15.74
2022-08-24T01:53:55.208Z,15.76
2022-08-24T01:56:24.563Z,15.73
2022-08-24T01:58:54.042Z,15.70
2022-08-24T02:01:22.173Z,15.67
2022-08-24T02:03:51.893Z,15.59
2022-08-24T02:06:21.524Z,15.64
2022-08-24T02:08:49.484Z,15.65
2022-08-24T02:11:17.458Z,15.65
2022-08-24T02:13:47.395Z,15.63
2022-08-24T02:16:15.801Z,15.65
2022-08-24T02:18:44.139Z,15.60
2022-08-24T02:21:13.332Z,15.59
2022-08-24T02:23:42.776Z,15.58
2022-08-24T02:26:12.222Z,15.57
2022-08-24T02:28:41.281Z,15.59
2022-08-24T02:31:12.997Z,15.57
2022-08-24T02:33:42.209Z,15.54
2022-08-24T02:36:26.041Z,15.61
2022-08-24T02:38:57.863Z,15.57
2022-08-24T02:41:26.851Z,15.51
2022-08-24T02:43:56.789Z,15.49
2022-08-24T02:46:27.896Z,15.57
2022-08-24T02:49:11.729Z,15.56
2022-08-24T02:51:45.599Z,15.60
2022-08-24T02:54:19.400Z,15.54
2022-08-24T02:56:49.291Z,15.51
2022-08-24T02:59:17.870Z,15.58
2022-08-24T03:01:49.682Z,15.55
2022-08-24T03:04:18.944Z,15.48
2022-08-24T03:06:47.064Z,15.44
2022-08-24T03:09:15.432Z,15.49
2022-08-24T03:11:45.490Z,15.55
2022-08-24T03:14:14.579Z,15.48
2022-08-24T03:16:43.260Z,15.43
2022-08-24T03:19:15.212Z,15.40
2022-08-24T03:21:44.631Z,15.35
2022-08-24T03:24:13.470Z,15.42
2022-08-24T03:26:43.626Z,15.40
2022-08-24T03:29:13.630Z,15.37
2022-08-24T03:31:44.133Z,15.29
2022-08-24T03:34:14.170Z,15.34
2022-08-24T03:36:46.309Z,15.25
2022-08-24T03:39:15.511Z,15.26
2022-08-24T03:41:43.916Z,15.19
2022-08-24T03:44:11.870Z,15.22
2022-08-24T03:46:40.098Z,15.24
2022-08-24T03:49:10.939Z,15.27
2022-08-24T03:51:40.677Z,15.43
2022-08-24T03:54:11.809Z,15.48
2022-08-24T03:56:40.036Z,15.60
2022-08-24T03:59:09.801Z,15.61
2022-08-24T04:01:41.539Z,15.63
2022-08-24T04:04:10.370Z,15.64
2022-08-24T04:06:44.231Z,15.56
2022-08-24T04:09:12.809Z,15.53
2022-08-24T04:11:45.948Z,15.56
2022-08-24T04:14:23.716Z,15.52
2022-08-24T04:17:01.983Z,15.52
2022-08-24T04:19:34.995Z,15.49
2022-08-24T04:22:04.725Z,15.56
2022-08-24T04:24:32.747Z,15.54
2022-08-24T04:27:00.698Z,15.58
2022-08-24T04:29:28.709Z,15.62
2022-08-24T04:31:56.764Z,15.65
2022-08-24T04:34:24.946Z,15.67
2022-08-24T04:36:53.014Z,15.76
2022-08-24T04:39:22.427Z,15.78
2022-08-24T04:42:10.111Z,15.79
2022-08-24T04:44:41.828Z,15.82
2022-08-24T04:47:10.157Z,15.92
2022-08-24T04:49:39.677Z,15.98
2022-08-24T04:52:08.143Z,16.00
2022-08-24T04:54:37.730Z,16.04
2022-08-24T04:57:15.960Z,16.06
2022-08-24T04:59:46.755Z,16.14
2022-08-24T05:02:14.896Z,16.19
2022-08-24T05:04:43.596Z,16.22
2022-08-24T05:07:12.375Z,16.31
2022-08-24T05:09:43.892Z,16.38
2022-08-24T05:12:12.833Z,16.43
2022-08-24T05:14:49.069Z,16.53
2022-08-24T05:17:17.278Z,16.69
2022-08-24T05:19:46.077Z,16.74
2022-08-24T05:22:14.162Z,16.84
2022-08-24T05:24:49.010Z,16.96
2022-08-24T05:27:17.211Z,17.01
2022-08-24T05:29:48.062Z,17.10
2022-08-24T05:32:19.142Z,17.34
2022-08-24T05:34:47.312Z,17.36
2022-08-24T05:37:15.767Z,17.44
2022-08-24T05:40:06.683Z,17.50
2022-08-24T05:42:36.249Z,17.62
2022-08-24T05:45:05.107Z,17.73
2022-08-24T05:47:34.475Z,17.95
2022-08-24T05:50:09.990Z,18.01
2022-08-24T05:52:38.312Z,18.03
2022-08-24T05:55:10.200Z,18.00
2022-08-24T05:57:38.252Z,18.13
2022-08-24T06:00:17.833Z,18.26
2022-08-24T06:02:52.917Z,18.46
2022-08-24T06:05:22.415Z,18.40
2022-08-24T06:07:50.655Z,18.52
2022-08-24T06:10:36.438Z,18.67
2022-08-24T06:13:06.380Z,18.73
2022-08-24T06:15:34.988Z,18.83
2022-08-24T06:18:04.054Z,18.87
2022-08-24T06:20:32.102Z,18.98
2022-08-24T06:23:00.377Z,19.09
2022-08-24T06:25:57.833Z,19.24
2022-08-24T06:28:26.285Z,19.27
2022-08-24T06:31:03.244Z,19.38
2022-08-24T06:33:31.534Z,19.40
2022-08-24T06:36:00.380Z,19.57
2022-08-24T06:38:30.615Z,19.61
2022-08-24T06:41:00.872Z,19.83
2022-08-24T06:43:29.316Z,19.89
2022-08-24T06:46:02.119Z,20.03
2022-08-24T06:48:35.370Z,20.33
2022-08-24T06:51:03.485Z,20.27
2022-08-24T06:53:31.579Z,20.33
2022-08-24T06:56:01.544Z,20.50
2022-08-24T06:58:35.748Z,20.68
2022-08-24T07:01:11.188Z,20.71
2022-08-24T07:03:39.711Z,20.86
2022-08-24T07:06:21.310Z,20.96
2022-08-24T07:08:49.653Z,21.07
2022-08-24T07:11:20.628Z,21.16
2022-08-24T07:13:49.867Z,21.26
2022-08-24T07:16:19.418Z,21.26
2022-08-24T07:18:51.362Z,21.41
2022-08-24T07:21:22.211Z,21.54
2022-08-24T07:23:55.957Z,21.69
2022-08-24T07:26:27.201Z,21.64
2022-08-24T07:29:01.303Z,21.52
2022-08-24T07:31:35.406Z,21.57
2022-08-24T07:34:33.229Z,21.90
2022-08-24T07:37:01.604Z,22.02
2022-08-24T07:39:30.629Z,22.11
2022-08-24T07:42:23.023Z,22.31
2022-08-24T07:44:48.713Z,22.66
2022-08-24T07:50:09.127Z,23.17
2022-08-24T07:52:38.259Z,23.49
2022-08-24T07:55:07.526Z,23.75
2022-08-24T07:57:38.437Z,24.01
2022-08-24T08:00:09.500Z,24.11
2022-08-24T08:02:46.443Z,23.74
2022-08-24T08:05:16.727Z,23.96
2022-08-24T08:07:51.609Z,23.99
2022-08-24T08:10:21.779Z,24.17
2022-08-24T08:12:51.252Z,24.01
2022-08-24T08:15:19.398Z,23.77
2022-08-24T08:17:56.220Z,23.78
2022-08-24T08:20:24.633Z,23.58
2022-08-24T08:23:10.586Z,23.38
2022-08-24T08:26:01.899Z,23.24
2022-08-24T08:28:49.713Z,23.73
2022-08-24T08:31:17.855Z,23.63
2022-08-24T08:33:46.126Z,23.84
2022-08-24T08:36:16.085Z,23.97
2022-08-24T08:38:51.069Z,23.82
2022-08-24T08:41:48.737Z,23.74
2022-08-24T08:44:39.110Z,23.78
2022-08-24T08:47:21.661Z,24.03
2022-08-24T08:50:10.785Z,24.18
2022-08-24T08:53:10.609Z,24.60
2022-08-24T08:55:41.399Z,25.54
2022-08-24T08:58:19.777Z,25.75
2022-08-24T09:00:57.172Z,25.80
2022-08-24T09:03:36.740Z,26.18
2022-08-24T09:06:46.455Z,26.87
2022-08-24T09:09:34.423Z,26.66
2022-08-24T09:12:10.330Z,25.85
2022-08-24T09:15:09.906Z,25.85
2022-08-24T09:17:54.555Z,26.50
2022-08-24T09:20:51.145Z,26.19
2022-08-24T09:23:23.999Z,25.96
2022-08-24T09:25:59.527Z,25.48
2022-08-24T09:28:43.794Z,24.91
2022-08-24T09:34:18.499Z,25.64
2022-08-24T09:36:54.400Z,25.40
2022-08-24T09:39:37.046Z,25.34
2022-08-24T09:42:42.902Z,24.74
2022-08-24T09:45:24.675Z,25.27
2022-08-24T09:48:23.885Z,25.98
2022-08-24T09:51:28.631Z,26.57
2022-08-24T09:54:26.759Z,26.91
2022-08-24T09:57:12.280Z,27.38
2022-08-24T10:00:11.822Z,27.87
2022-08-24T10:03:08.291Z,27.46
2022-08-24T10:06:00.747Z,27.60
2022-08-24T10:08:36.508Z,28.09
2022-08-24T10:11:13.321Z,27.80
2022-08-24T10:13:50.814Z,27.74
2022-08-24T10:16:30.268Z,28.17
2022-08-24T10:19:08.920Z,28.58
2022-08-24T10:21:45.453Z,28.50
2022-08-24T10:24:30.019Z,28.26
2022-08-24T10:27:25.123Z,28.39
2022-08-24T10:30:05.355Z,28.80
2022-08-24T10:32:44.538Z,29.03
2022-08-24T10:35:15.846Z,28.88
2022-08-24T10:38:42.514Z,29.14
2022-08-24T10:41:56.132Z,29.58
2022-08-24T10:44:31.832Z,29.72
2022-08-24T10:47:00.985Z,29.99
2022-08-24T10:50:01.787Z,30.36
2022-08-24T10:52:56.839Z,30.46
2022-08-24T10:55:27.131Z,29.21
2022-08-24T10:58:07.396Z,29.59
2022-08-24T11:00:37.321Z,29.92
2022-08-24T11:03:12.764Z,29.59
2022-08-24T11:05:46.707Z,29.91
2022-08-24T11:08:21.831Z,29.88
2022-08-24T11:11:09.882Z,30.95
2022-08-24T11:13:39.752Z,30.33
2022-08-24T11:16:09.156Z,31.17
2022-08-24T11:18:52.491Z,28.97
2022-08-24T11:21:41.759Z,27.39
2022-08-24T11:24:13.597Z,26.86
2022-08-24T11:26:53.844Z,27.04
2022-08-24T11:29:24.297Z,28.38
2022-08-24T11:31:54.198Z,29.72
2022-08-24T11:34:35.509Z,30.03
2022-08-24T11:37:04.300Z,30.25
2022-08-24T11:39:35.359Z,30.07
2022-08-24T11:42:15.400Z,31.11
2022-08-24T11:44:49.700Z,30.37
2022-08-24T11:47:40.391Z,30.70
2022-08-24T11:50:19.798Z,30.47
2022-08-24T11:52:58.084Z,30.79
2022-08-24T11:55:47.219Z,31.51
2022-08-24T11:58:24.037Z,32.06
2022-08-24T12:00:56.826Z,32.01
2022-08-24T12:03:37.758Z,31.62
2022-08-24T12:06:19.440Z,31.13
2022-08-24T12:08:51.452Z,31.01
2022-08-24T12:11:23.652Z,31.69
2022-08-24T12:13:58.301Z,30.81
2022-08-24T12:16:31.001Z,32.17
2022-08-24T12:19:05.018Z,32.36
2022-08-24T12:21:35.372Z,32.09
2022-08-24T12:24:05.992Z,32.16
2022-08-24T12:26:38.176Z,31.91
2022-08-24T12:29:09.922Z,32.64
2022-08-24T12:31:42.049Z,32.73
2022-08-24T12:34:14.729Z,33.19
2022-08-24T12:36:51.602Z,32.57
2022-08-24T12:39:22.305Z,32.52
2022-08-24T12:41:58.552Z,33.57
2022-08-24T12:44:41.961Z,33.43
2022-08-24T12:47:10.040Z,33.08
2022-08-24T12:49:47.713Z,33.70
2022-08-24T12:52:46.141Z,34.39
2022-08-24T12:55:27.358Z,34.04
2022-08-24T12:58:31.015Z,34.09
2022-08-24T13:00:54.640Z,34.30
2022-08-24T13:03:28.045Z,35.51
2022-08-24T13:06:01.032Z,34.61
2022-08-24T13:08:36.496Z,35.20
2022-08-24T13:11:07.235Z,35.84
2022-08-24T13:13:46.708Z,36.09
2022-08-24T13:16:46.462Z,35.89
2022-08-24T13:19:17.861Z,34.77
2022-08-24T13:21:54.339Z,33.35
2022-08-24T13:24:43.911Z,35.00
2022-08-24T13:27:49.331Z,34.01
2022-08-24T13:30:30.584Z,34.92
2022-08-24T13:33:03.753Z,34.49
2022-08-24T13:35:54.737Z,34.40
2022-08-24T13:38:59.176Z,35.18
2022-08-24T13:41:49.249Z,36.02
2022-08-24T13:44:27.336Z,35.44
2022-08-24T13:47:03.292Z,35.37
2022-08-24T13:49:46.298Z,35.43
2022-08-24T13:52:22.368Z,36.60
2022-08-24T13:55:08.558Z,36.54
2022-08-24T13:57:40.221Z,37.10
2022-08-24T14:00:19.066Z,36.68
2022-08-24T14:03:00.021Z,36.86
2022-08-24T14:05:35.647Z,36.28
2022-08-24T14:08:12.928Z,36.48
2022-08-24T14:10:54.141Z,35.71
2022-08-24T14:13:32.714Z,35.88
2022-08-24T14:16:22.049Z,36.73
2022-08-24T14:19:00.608Z,36.50
2022-08-24T14:21:37.834Z,36.46
2022-08-24T14:24:09.363Z,37.10
2022-08-24T14:27:03.571Z,36.22
2022-08-24T14:29:37.726Z,35.00
2022-08-24T14:32:33.326Z,33.86
2022-08-24T14:35:24.117Z,34.00
2022-08-24T14:38:02.424Z,33.43
2022-08-24T14:40:37.094Z,33.66
2022-08-24T14:43:28.590Z,34.68
2022-08-24T14:46:07.596Z,34.53
2022-08-24T14:48:43.607Z,33.71
2022-08-24T14:51:19.164Z,33.85
2022-08-24T14:53:57.015Z,33.95
2022-08-24T14:56:32.756Z,34.48
2022-08-24T14:59:07.464Z,32.96
2022-08-24T15:01:43.841Z,32.68
2022-08-24T15:04:40.367Z,31.63
2022-08-24T15:07:25.277Z,31.70
2022-08-24T15:09:55.628Z,31.59
2022-08-24T15:12:31.483Z,32.53
2022-08-24T15:15:06.320Z,33.85
2022-08-24T15:17:43.684Z,34.68
2022-08-24T15:20:19.996Z,35.23
2022-08-24T15:22:55.639Z,34.24
2022-08-24T15:25:37.534Z,33.53
2022-08-24T15:28:11.162Z,33.52
2022-08-24T15:30:42.154Z,33.61
2022-08-24T15:33:15.040Z,32.88
2022-08-24T15:35:46.839Z,32.70
2022-08-24T15:38:23.698Z,31.39
2022-08-24T15:40:53.190Z,30.83
2022-08-24T15:43:22.078Z,30.93
2022-08-24T15:45:53.061Z,31.16
2022-08-24T15:48:24.534Z,31.19
2022-08-24T15:50:53.910Z,31.42
2022-08-24T15:53:33.156Z,31.94
2022-08-24T15:56:27.855Z,31.50
2022-08-24T15:58:55.964Z,31.97
2022-08-24T16:01:46.797Z,32.15
2022-08-24T16:04:36.194Z,31.60
2022-08-24T16:07:05.545Z,30.64
2022-08-24T16:09:37.579Z,30.85
2022-08-24T16:12:06.765Z,31.67
2022-08-24T16:14:37.035Z,30.90
2022-08-24T16:17:23.534Z,29.71
2022-08-24T16:19:53.490Z,29.29
2022-08-24T16:22:32.947Z,29.18
2022-08-24T16:25:19.615Z,28.83
2022-08-24T16:27:58.197Z,29.00
2022-08-24T16:30:37.823Z,29.85
2022-08-24T16:33:06.291Z,29.65
2022-08-24T16:35:34.543Z,29.58
2022-08-24T16:38:04.173Z,30.45
2022-08-24T16:40:33.623Z,30.49
2022-08-24T16:43:01.683Z,30.67
2022-08-24T16:45:32.801Z,30.11
2022-08-24T16:48:04.256Z,29.99
2022-08-24T16:50:32.495Z,30.22
2022-08-24T16:53:00.446Z,30.39
2022-08-24T16:55:29.829Z,30.47
2022-08-24T16:57:57.882Z,30.51
2022-08-24T17:00:25.798Z,30.46
2022-08-24T17:02:54.191Z,29.88
2022-08-24T17:05:22.273Z,29.74
2022-08-24T17:07:50.783Z,29.93
2022-08-24T17:10:23.079Z,29.61
2022-08-24T17:12:52.125Z,29.34
2022-08-24T17:15:20.237Z,28.76
2022-08-24T17:17:55.610Z,28.89
2022-08-24T17:20:23.525Z,27.81
2022-08-24T17:22:51.720Z,27.08
2022-08-24T17:25:19.727Z,26.69
2022-08-24T17:27:48.266Z,26.31
2022-08-24T17:30:18.486Z,26.17
2022-08-24T17:32:47.830Z,26.00
2022-08-24T17:35:16.024Z,25.78
2022-08-24T17:37:44.478Z,25.51
2022-08-24T17:40:14.414Z,25.32
2022-08-24T17:42:51.466Z,25.34
2022-08-24T17:45:22.783Z,24.98
2022-08-24T17:47:52.362Z,24.78
2022-08-24T17:50:21.466Z,24.80
2022-08-24T17:52:49.611Z,24.59
2022-08-24T17:55:25.106Z,24.37
2022-08-24T17:57:53.354Z,24.36
2022-08-24T18:00:22.862Z,24.36
2022-08-24T18:02:50.854Z,24.31
2022-08-24T18:05:19.012Z,24.17
2022-08-24T18:07:53.501Z,24.03
2022-08-24T18:10:24.584Z,23.87
2022-08-24T18:12:53.106Z,23.73
2022-08-24T18:15:34.643Z,23.59
2022-08-24T18:18:05.785Z,23.53
2022-08-24T18:20:38.751Z,23.26
2022-08-24T18:23:06.688Z,23.26
2022-08-24T18:25:43.954Z,23.20
2022-08-24T18:28:12.461Z,23.10
2022-08-24T18:30:41.917Z,23.09
2022-08-24T18:33:11.915Z,22.91
2022-08-24T18:35:39.830Z,22.84
2022-08-24T18:38:07.794Z,22.78
2022-08-24T18:40:36.082Z,22.66
2022-08-24T18:43:04.719Z,22.55
2022-08-24T18:45:34.283Z,22.49
2022-08-24T18:48:04.036Z,22.32
2022-08-24T18:50:33.295Z,22.26
2022-08-24T18:53:02.077Z,22.27
2022-08-24T18:55:30.528Z,22.24
2022-08-24T18:57:58.576Z,22.14
2022-08-24T19:00:26.540Z,22.05
2022-08-24T19:03:02.459Z,22.00
2022-08-24T19:05:32.257Z,21.80
2022-08-24T19:08:00.326Z,21.74
2022-08-24T19:10:30.057Z,21.72
2022-08-24T19:13:00.032Z,21.68
2022-08-24T19:15:30.934Z,21.59
2022-08-24T19:18:08.060Z,21.56
2022-08-24T19:20:37.758Z,21.49
2022-08-24T19:23:08.728Z,21.42
2022-08-24T19:25:38.452Z,21.44
2022-08-24T19:28:06.862Z,21.32
2022-08-24T19:30:35.171Z,21.37
2022-08-24T19:33:03.865Z,21.28
2022-08-24T19:35:34.211Z,21.34
2022-08-24T19:38:04.287Z,21.26
2022-08-24T19:40:32.360Z,21.17
2022-08-24T19:43:03.157Z,21.13
2022-08-24T19:45:49.540Z,21.03
2022-08-24T19:48:17.962Z,20.95
2022-08-24T19:50:46.226Z,20.88
2022-08-24T19:53:15.672Z,20.85
2022-08-24T19:55:45.740Z,20.87
2022-08-24T19:58:23.757Z,20.74
2022-08-24T20:00:57.596Z,20.75
2022-08-24T20:03:26.027Z,20.62
2022-08-24T20:05:54.030Z,20.61
2022-08-24T20:08:23.399Z,20.54
2022-08-24T20:10:53.073Z,20.52
2022-08-24T20:13:21.070Z,20.52
2022-08-24T20:15:50.233Z,20.45
2022-08-24T20:18:18.378Z,20.47
2022-08-24T20:20:46.471Z,20.44
2022-08-24T20:23:17.490Z,20.49
2022-08-24T20:25:47.049Z,20.51
2022-08-24T20:28:36.013Z,20.34
2022-08-24T20:31:04.503Z,20.20
2022-08-24T20:33:32.634Z,20.17
2022-08-24T20:36:00.793Z,20.09
2022-08-24T20:38:32.109Z,20.14
2022-08-24T20:41:02.146Z,20.09
2022-08-24T20:43:30.412Z,20.05
2022-08-24T20:45:58.549Z,20.01
2022-08-24T20:48:28.864Z,20.01
2022-08-24T20:50:57.411Z,19.93
2022-08-24T20:53:26.732Z,20.03
2022-08-24T20:55:57.583Z,19.97
2022-08-24T20:58:27.050Z,19.90
2022-08-24T21:00:55.091Z,19.93
2022-08-24T21:03:23.107Z,19.93
2022-08-24T21:05:52.429Z,19.83
2022-08-24T21:08:20.682Z,19.91
2022-08-24T21:10:48.717Z,19.85
2022-08-24T21:13:16.672Z,19.78
2022-08-24T21:15:46.477Z,19.70
2022-08-24T21:18:14.732Z,19.64
2022-08-24T21:20:44.776Z,19.66
2022-08-24T21:23:28.760Z,19.56
2022-08-24T21:25:56.847Z,19.55
2022-08-24T21:28:24.935Z,19.55
2022-08-24T21:30:54.350Z,19.51
2022-08-24T21:33:39.587Z,19.49
2022-08-24T21:36:08.929Z,19.50
2022-08-24T21:38:37.174Z,19.43
2022-08-24T21:41:07.350Z,19.50
2022-08-24T21:43:35.399Z,19.41
2022-08-24T21:46:05.774Z,19.45
2022-08-24T21:48:33.778Z,19.39
2022-08-24T21:51:01.935Z,19.44
2022-08-24T21:53:29.914Z,19.36
2022-08-24T21:55:58.669Z,19.47
2022-08-24T21:58:27.139Z,19.34
2022-08-24T22:00:59.179Z,19.38
2022-08-24T22:03:34.737Z,19.45
2022-08-24T22:06:08.807Z,19.31
2022-08-24T22:08:36.922Z,19.38
2022-08-24T22:11:05.921Z,19.33
2022-08-24T22:13:34.659Z,19.23
2022-08-24T22:16:03.093Z,19.14
2022-08-24T22:18:32.767Z,19.17
2022-08-24T22:21:01.072Z,19.11
2022-08-24T22:23:29.071Z,19.04
2022-08-24T22:25:56.986Z,18.98
2022-08-24T22:28:24.940Z,18.90
2022-08-24T22:30:53.033Z,18.88
2022-08-24T22:33:21.171Z,18.93
2022-08-24T22:35:51.753Z,19.01
2022-08-24T22:38:19.839Z,19.02
2022-08-24T22:40:47.971Z,18.94
2022-08-24T22:43:15.947Z,18.94
2022-08-24T22:45:43.868Z,18.98
2022-08-24T22:48:11.858Z,18.92
2022-08-24T22:50:43.654Z,18.85
2022-08-24T22:53:13.181Z,18.78
2022-08-24T22:55:41.133Z,18.76
2022-08-24T22:58:09.294Z,18.76
2022-08-24T23:00:40.357Z,18.85
2022-08-24T23:03:08.296Z,18.73
2022-08-24T23:05:36.336Z,18.73
2022-08-24T23:08:05.507Z,18.79
2022-08-24T23:10:34.892Z,18.66
2022-08-24T23:13:02.802Z,18.62
2022-08-24T23:15:30.818Z,18.58
2022-08-24T23:18:18.880Z,18.64
2022-08-24T23:20:45.887Z,18.61
2022-08-24T23:23:13.834Z,18.59
2022-08-24T23:25:43.129Z,18.55
2022-08-24T23:28:11.323Z,18.55
2022-08-24T23:30:39.243Z,18.52
2022-08-24T23:33:08.465Z,18.53
2022-08-24T23:35:37.319Z,18.51
2022-08-24T23:38:05.489Z,18.58
2022-08-24T23:40:33.762Z,18.53
2022-08-24T23:43:03.355Z,18.46
2022-08-24T23:45:31.667Z,18.41
2022-08-24T23:48:00.793Z,18.45
2022-08-24T23:50:28.947Z,18.42
2022-08-24T23:52:57.020Z,18.32
2022-08-24T23:55:25.193Z,18.39
2022-08-24T23:57:53.922Z,18.28
